PWSweather.com
Personal Weather Stations
Station Observations
BMGB5962
BerguesFR 59380

BerguesFR 59380

Lat: 50.968, Lon: 2.440469

Elevation: 56

Station Type: Vantage Pro 2 Plus

Latest ConditionsUpdated 10:14:09 AM GMT+01:01 Thursday, Dec 12, 2019
Currently Today's Max Today's Min Today's Average
Temperature 37.0°F2.8°C 40.1°F4.5°C 34.1°F1.2°C 36.4°F2.4°C
Dew Point 36.0°F2.2°C 39.0°F3.9°C 33.0°F0.6°C 35.2°F1.8°C
Winds 8.0 mph SSW12.9 kmh SSW 11.0 mph -17.7 kmh - - 2.9 mph 4.7 kmh
Wind Gusts 13.0 mph20.9 kmh 22.0 mph35.4 kmh - -
Humidity 95% 96% 94% 95%
Pressure 29.50 in999.0 mb 29.62 in1003.0 mb 29.50 in999.0 mb -
Precipitation - 0.01 in0.3 mm - -
Hour Temp Dew Point Humidity Winds Wind Gusts Pressure Precip Precip Rate Daily Precip Total
10:14 AM 37.0°F2.8°C 36.0°F2.2°C 95% 8.0 mph SSW12.9 kmh SSW 13.0 mph20.9 kmh 29.50 in999.0 mb 0.00 in0.0 mm 0.00 in0.0 mm 0.01 in0.3 mm
10:09 AM 36.9°F2.7°C 36.0°F2.2°C 95% 5.0 mph S8.0 kmh S 13.0 mph20.9 kmh 29.50 in999.0 mb 0.00 in0.0 mm 0.00 in0.0 mm 0.01 in0.3 mm
10:04 AM 36.7°F2.6°C 35.0°F1.7°C 95% 5.0 mph S8.0 kmh S 13.0 mph20.9 kmh 29.51 in999.3 mb 0.00 in0.0 mm 0.00 in0.0 mm 0.01 in0.3 mm
09:59 AM 36.6°F2.6°C 35.0°F1.7°C 95% 2.0 mph SW3.2 kmh SW 13.0 mph20.9 kmh 29.51 in999.3 mb 0.00 in0.0 mm 0.00 in0.0 mm 0.01 in0.3 mm
09:54 AM 36.4°F2.4°C 35.0°F1.7°C 95% 5.0 mph SW8.0 kmh SW 13.0 mph20.9 kmh 29.51 in999.3 mb 0.00 in0.0 mm 0.00 in0.0 mm 0.01 in0.3 mm
09:49 AM 36.2°F2.3°C 35.0°F1.7°C 95% 11.0 mph SSW17.7 kmh SSW 13.0 mph20.9 kmh 29.52 in999.7 mb 0.00 in0.0 mm 0.00 in0.0 mm 0.01 in0.3 mm
09:44 AM 36.1°F2.3°C 35.0°F1.7°C 95% 3.0 mph S4.8 kmh S 13.0 mph20.9 kmh 29.52 in999.7 mb 0.00 in0.0 mm 0.00 in0.0 mm 0.01 in0.3 mm
09:39 AM 36.1°F2.3°C 35.0°F1.7°C 95% 4.0 mph SSW6.4 kmh SSW 13.0 mph20.9 kmh 29.52 in999.7 mb 0.00 in0.0 mm 0.00 in0.0 mm 0.01 in0.3 mm
09:34 AM 36.0°F2.2°C 35.0°F1.7°C 95% 7.0 mph S11.3 kmh S 13.0 mph20.9 kmh 29.52 in999.7 mb 0.00 in0.0 mm 0.00 in0.0 mm 0.01 in0.3 mm
09:29 AM 36.0°F2.2°C 35.0°F1.7°C 95% 7.0 mph SW11.3 kmh SW 12.0 mph19.3 kmh 29.52 in999.7 mb 0.00 in0.0 mm 0.00 in0.0 mm 0.01 in0.3 mm
09:25 AM 35.9°F2.2°C 35.0°F1.7°C 95% 4.0 mph SW6.4 kmh SW 12.0 mph19.3 kmh 29.53 in1000.0 mb 0.00 in0.0 mm 0.00 in0.0 mm 0.01 in0.3 mm
09:20 AM 35.8°F2.1°C 35.0°F1.7°C 95% 3.0 mph SW4.8 kmh SW 12.0 mph19.3 kmh 29.53 in1000.0 mb 0.00 in0.0 mm 0.00 in0.0 mm 0.01 in0.3 mm
09:14 AM 35.7°F2.1°C 34.0°F1.1°C 95% 3.0 mph SW4.8 kmh SW 12.0 mph19.3 kmh 29.53 in1000.0 mb 0.00 in0.0 mm 0.00 in0.0 mm 0.01 in0.3 mm
09:09 AM 35.3°F1.8°C 34.0°F1.1°C 95% 3.0 mph SSW4.8 kmh SSW 12.0 mph19.3 kmh 29.53 in1000.0 mb 0.00 in0.0 mm 0.00 in0.0 mm 0.01 in0.3 mm
09:04 AM 35.1°F1.7°C 34.0°F1.1°C 95% 6.0 mph SW9.7 kmh SW 12.0 mph19.3 kmh 29.54 in1000.3 mb 0.00 in0.0 mm 0.00 in0.0 mm 0.01 in0.3 mm
08:59 AM 35.1°F1.7°C 34.0°F1.1°C 95% 4.0 mph S6.4 kmh S 12.0 mph19.3 kmh 29.54 in1000.3 mb 0.00 in0.0 mm 0.00 in0.0 mm 0.01 in0.3 mm
08:54 AM 35.1°F1.7°C 34.0°F1.1°C 95% 4.0 mph SSW6.4 kmh SSW 12.0 mph19.3 kmh 29.54 in1000.3 mb 0.00 in0.0 mm 0.00 in0.0 mm 0.01 in0.3 mm
08:49 AM 35.1°F1.7°C 34.0°F1.1°C 95% 3.0 mph S4.8 kmh S 12.0 mph19.3 kmh 29.54 in1000.3 mb 0.00 in0.0 mm 0.00 in0.0 mm 0.01 in0.3 mm
08:44 AM 35.2°F1.8°C 34.0°F1.1°C 95% 4.0 mph S6.4 kmh S 12.0 mph19.3 kmh 29.54 in1000.3 mb 0.00 in0.0 mm 0.00 in0.0 mm 0.01 in0.3 mm
08:39 AM 35.4°F1.9°C 34.0°F1.1°C 95% 3.0 mph WSW4.8 kmh WSW 12.0 mph19.3 kmh 29.54 in1000.3 mb 0.00 in0.0 mm 0.00 in0.0 mm 0.01 in0.3 mm
08:34 AM 35.5°F1.9°C 34.0°F1.1°C 95% 2.0 mph S3.2 kmh S 12.0 mph19.3 kmh 29.54 in1000.3 mb 0.00 in0.0 mm 0.00 in0.0 mm 0.01 in0.3 mm
08:29 AM 35.5°F1.9°C 34.0°F1.1°C 95% 3.0 mph S4.8 kmh S 12.0 mph19.3 kmh 29.55 in1000.7 mb 0.00 in0.0 mm 0.00 in0.0 mm 0.01 in0.3 mm
08:24 AM 35.2°F1.8°C 34.0°F1.1°C 95% 7.0 mph SW11.3 kmh SW 12.0 mph19.3 kmh 29.55 in1000.7 mb 0.00 in0.0 mm 0.00 in0.0 mm 0.01 in0.3 mm
08:19 AM 34.9°F1.6°C 34.0°F1.1°C 96% 3.0 mph SW4.8 kmh SW 12.0 mph19.3 kmh 29.55 in1000.7 mb 0.00 in0.0 mm 0.00 in0.0 mm 0.01 in0.3 mm
08:14 AM 34.3°F1.3°C 33.0°F0.6°C 95% 5.0 mph SW8.0 kmh SW 9.0 mph14.5 kmh 29.55 in1000.7 mb 0.00 in0.0 mm 0.00 in0.0 mm 0.01 in0.3 mm
08:09 AM 34.3°F1.3°C 33.0°F0.6°C 95% 6.0 mph SW9.7 kmh SW 9.0 mph14.5 kmh 29.55 in1000.7 mb 0.00 in0.0 mm 0.00 in0.0 mm 0.01 in0.3 mm
08:04 AM 34.3°F1.3°C 33.0°F0.6°C 95% 4.0 mph SW6.4 kmh SW 9.0 mph14.5 kmh 29.55 in1000.7 mb 0.00 in0.0 mm 0.00 in0.0 mm 0.01 in0.3 mm
07:59 AM 34.4°F1.3°C 33.0°F0.6°C 95% 2.0 mph SSW3.2 kmh SSW 9.0 mph14.5 kmh 29.56 in1001.0 mb 0.00 in0.0 mm 0.00 in0.0 mm 0.01 in0.3 mm
07:54 AM 34.3°F1.3°C 33.0°F0.6°C 95% 2.0 mph WSW3.2 kmh WSW 9.0 mph14.5 kmh 29.56 in1001.0 mb 0.00 in0.0 mm 0.00 in0.0 mm 0.01 in0.3 mm
07:49 AM 34.1°F1.2°C 33.0°F0.6°C 95% 3.0 mph S4.8 kmh S 9.0 mph14.5 kmh 29.56 in1001.0 mb 0.00 in0.0 mm 0.00 in0.0 mm 0.01 in0.3 mm
07:44 AM 34.1°F1.2°C 33.0°F0.6°C 95% Calm Calm 9.0 mph14.5 kmh 29.56 in1001.0 mb 0.00 in0.0 mm 0.00 in0.0 mm 0.01 in0.3 mm
07:39 AM 34.1°F1.2°C 33.0°F0.6°C 95% 2.0 mph S3.2 kmh S 9.0 mph14.5 kmh 29.56 in1001.0 mb 0.00 in0.0 mm 0.00 in0.0 mm 0.01 in0.3 mm
07:34 AM 34.1°F1.2°C 33.0°F0.6°C 95% 3.0 mph SSW4.8 kmh SSW 9.0 mph14.5 kmh 29.56 in1001.0 mb 0.00 in0.0 mm 0.00 in0.0 mm 0.01 in0.3 mm
07:29 AM 34.2°F1.2°C 33.0°F0.6°C 95% 2.0 mph SSE3.2 kmh SSE 9.0 mph14.5 kmh 29.56 in1001.0 mb 0.00 in0.0 mm 0.00 in0.0 mm 0.01 in0.3 mm
07:24 AM 34.2°F1.2°C 33.0°F0.6°C 95% 2.0 mph S3.2 kmh S 9.0 mph14.5 kmh 29.56 in1001.0 mb 0.00 in0.0 mm 0.00 in0.0 mm 0.01 in0.3 mm
07:19 AM 34.2°F1.2°C 33.0°F0.6°C 95% 1.0 mph SSW1.6 kmh SSW 9.0 mph14.5 kmh 29.57 in1001.4 mb 0.00 in0.0 mm 0.00 in0.0 mm 0.01 in0.3 mm
07:14 AM 34.4°F1.3°C 33.0°F0.6°C 95% 3.0 mph S4.8 kmh S 9.0 mph14.5 kmh 29.57 in1001.4 mb 0.00 in0.0 mm 0.00 in0.0 mm 0.01 in0.3 mm
07:09 AM 34.6°F1.4°C 33.0°F0.6°C 95% 1.0 mph S1.6 kmh S 9.0 mph14.5 kmh 29.57 in1001.4 mb 0.00 in0.0 mm 0.00 in0.0 mm 0.01 in0.3 mm
07:04 AM 34.9°F1.6°C 34.0°F1.1°C 95% 3.0 mph S4.8 kmh S 9.0 mph14.5 kmh 29.57 in1001.4 mb 0.00 in0.0 mm 0.00 in0.0 mm 0.01 in0.3 mm
06:59 AM 35.0°F1.7°C 34.0°F1.1°C 95% 2.0 mph SW3.2 kmh SW 9.0 mph14.5 kmh 29.57 in1001.4 mb 0.00 in0.0 mm 0.00 in0.0 mm 0.01 in0.3 mm
06:54 AM 34.9°F1.6°C 34.0°F1.1°C 95% Calm Calm 9.0 mph14.5 kmh 29.57 in1001.4 mb 0.00 in0.0 mm 0.00 in0.0 mm 0.01 in0.3 mm
06:49 AM 34.9°F1.6°C 34.0°F1.1°C 95% 2.0 mph WSW3.2 kmh WSW 9.0 mph14.5 kmh 29.57 in1001.4 mb 0.00 in0.0 mm 0.00 in0.0 mm 0.01 in0.3 mm
06:44 AM 34.8°F1.6°C 34.0°F1.1°C 95% Calm Calm 9.0 mph14.5 kmh 29.58 in1001.7 mb 0.00 in0.0 mm 0.00 in0.0 mm 0.01 in0.3 mm
06:39 AM 34.7°F1.5°C 34.0°F1.1°C 95% 2.0 mph SW3.2 kmh SW 9.0 mph14.5 kmh 29.58 in1001.7 mb 0.00 in0.0 mm 0.00 in0.0 mm 0.01 in0.3 mm
06:34 AM 34.7°F1.5°C 34.0°F1.1°C 95% 2.0 mph SW3.2 kmh SW 9.0 mph14.5 kmh 29.58 in1001.7 mb 0.00 in0.0 mm 0.00 in0.0 mm 0.01 in0.3 mm
06:29 AM 34.7°F1.5°C 34.0°F1.1°C 95% 2.0 mph SW3.2 kmh SW 9.0 mph14.5 kmh 29.58 in1001.7 mb 0.00 in0.0 mm 0.00 in0.0 mm 0.01 in0.3 mm
06:24 AM 34.7°F1.5°C 34.0°F1.1°C 95% 2.0 mph SW3.2 kmh SW 9.0 mph14.5 kmh 29.58 in1001.7 mb 0.00 in0.0 mm 0.00 in0.0 mm 0.01 in0.3 mm
06:19 AM 34.8°F1.6°C 34.0°F1.1°C 95% 2.0 mph SW3.2 kmh SW 9.0 mph14.5 kmh 29.58 in1001.7 mb 0.00 in0.0 mm 0.00 in0.0 mm 0.01 in0.3 mm
06:14 AM 34.9°F1.6°C 34.0°F1.1°C 95% 3.0 mph SW4.8 kmh SW 9.0 mph14.5 kmh 29.58 in1001.7 mb 0.00 in0.0 mm 0.00 in0.0 mm 0.01 in0.3 mm
06:09 AM 35.0°F1.7°C 34.0°F1.1°C 95% 3.0 mph SW4.8 kmh SW 9.0 mph14.5 kmh 29.58 in1001.7 mb 0.00 in0.0 mm 0.00 in0.0 mm 0.01 in0.3 mm
06:04 AM 35.1°F1.7°C 34.0°F1.1°C 95% 2.0 mph SSW3.2 kmh SSW 9.0 mph14.5 kmh 29.59 in1002.0 mb 0.00 in0.0 mm 0.00 in0.0 mm 0.01 in0.3 mm
05:59 AM 35.2°F1.8°C 34.0°F1.1°C 95% 3.0 mph SW4.8 kmh SW 9.0 mph14.5 kmh 29.59 in1002.0 mb 0.00 in0.0 mm 0.00 in0.0 mm 0.01 in0.3 mm
05:54 AM 35.3°F1.8°C 34.0°F1.1°C 95% 3.0 mph SW4.8 kmh SW 9.0 mph14.5 kmh 29.59 in1002.0 mb 0.00 in0.0 mm 0.00 in0.0 mm 0.01 in0.3 mm
05:49 AM 35.3°F1.8°C 34.0°F1.1°C 95% 3.0 mph WSW4.8 kmh WSW 9.0 mph14.5 kmh 29.59 in1002.0 mb 0.00 in0.0 mm 0.00 in0.0 mm 0.01 in0.3 mm
05:44 AM 35.2°F1.8°C 34.0°F1.1°C 95% 2.0 mph SW3.2 kmh SW 9.0 mph14.5 kmh 29.58 in1001.7 mb 0.00 in0.0 mm 0.00 in0.0 mm 0.01 in0.3 mm
05:39 AM 35.3°F1.8°C 34.0°F1.1°C 95% 4.0 mph SW6.4 kmh SW 9.0 mph14.5 kmh 29.59 in1002.0 mb 0.00 in0.0 mm 0.00 in0.0 mm 0.00 in0.0 mm
05:34 AM 35.3°F1.8°C 34.0°F1.1°C 95% 3.0 mph SW4.8 kmh SW 9.0 mph14.5 kmh 29.59 in1002.0 mb 0.00 in0.0 mm 0.00 in0.0 mm 0.00 in0.0 mm
05:29 AM 35.3°F1.8°C 34.0°F1.1°C 95% 6.0 mph SW9.7 kmh SW 9.0 mph14.5 kmh 29.59 in1002.0 mb 0.00 in0.0 mm 0.00 in0.0 mm 0.00 in0.0 mm
05:24 AM 35.3°F1.8°C 34.0°F1.1°C 95% 3.0 mph SW4.8 kmh SW 9.0 mph14.5 kmh 29.59 in1002.0 mb 0.00 in0.0 mm 0.00 in0.0 mm 0.00 in0.0 mm
05:19 AM 35.3°F1.8°C 34.0°F1.1°C 95% 1.0 mph WSW1.6 kmh WSW 9.0 mph14.5 kmh 29.59 in1002.0 mb 0.00 in0.0 mm 0.00 in0.0 mm 0.00 in0.0 mm
05:14 AM 35.4°F1.9°C 34.0°F1.1°C 95% 3.0 mph SW4.8 kmh SW 9.0 mph14.5 kmh 29.59 in1002.0 mb 0.00 in0.0 mm 0.00 in0.0 mm 0.00 in0.0 mm
05:09 AM 35.5°F1.9°C 34.0°F1.1°C 95% 3.0 mph WSW4.8 kmh WSW 9.0 mph14.5 kmh 29.60 in1002.4 mb 0.00 in0.0 mm 0.00 in0.0 mm 0.00 in0.0 mm
05:04 AM 35.5°F1.9°C 34.0°F1.1°C 95% 2.0 mph SW3.2 kmh SW 9.0 mph14.5 kmh 29.60 in1002.4 mb 0.00 in0.0 mm 0.00 in0.0 mm 0.00 in0.0 mm
04:59 AM 35.6°F2.0°C 34.0°F1.1°C 95% 3.0 mph SW4.8 kmh SW 9.0 mph14.5 kmh 29.59 in1002.0 mb 0.00 in0.0 mm 0.00 in0.0 mm 0.00 in0.0 mm
04:54 AM 35.7°F2.1°C 34.0°F1.1°C 95% 3.0 mph SW4.8 kmh SW 9.0 mph14.5 kmh 29.60 in1002.4 mb 0.00 in0.0 mm 0.00 in0.0 mm 0.00 in0.0 mm
04:49 AM 35.8°F2.1°C 35.0°F1.7°C 95% 2.0 mph WSW3.2 kmh WSW 9.0 mph14.5 kmh 29.60 in1002.4 mb 0.00 in0.0 mm 0.00 in0.0 mm 0.00 in0.0 mm
04:44 AM 35.8°F2.1°C 35.0°F1.7°C 95% 3.0 mph WSW4.8 kmh WSW 9.0 mph14.5 kmh 29.60 in1002.4 mb 0.00 in0.0 mm 0.00 in0.0 mm 0.00 in0.0 mm
04:39 AM 35.9°F2.2°C 35.0°F1.7°C 95% 3.0 mph WSW4.8 kmh WSW 9.0 mph14.5 kmh 29.60 in1002.4 mb 0.00 in0.0 mm 0.00 in0.0 mm 0.00 in0.0 mm
04:34 AM 36.0°F2.2°C 35.0°F1.7°C 95% 2.0 mph WSW3.2 kmh WSW 9.0 mph14.5 kmh 29.61 in1002.7 mb 0.00 in0.0 mm 0.00 in0.0 mm 0.00 in0.0 mm
04:29 AM 36.0°F2.2°C 35.0°F1.7°C 95% 3.0 mph WSW4.8 kmh WSW 9.0 mph14.5 kmh 29.61 in1002.7 mb 0.00 in0.0 mm 0.00 in0.0 mm 0.00 in0.0 mm
04:24 AM 36.1°F2.3°C 35.0°F1.7°C 95% 2.0 mph WSW3.2 kmh WSW 9.0 mph14.5 kmh 29.61 in1002.7 mb 0.00 in0.0 mm 0.00 in0.0 mm 0.00 in0.0 mm
04:19 AM 36.1°F2.3°C 35.0°F1.7°C 95% 3.0 mph SW4.8 kmh SW 9.0 mph14.5 kmh 29.61 in1002.7 mb 0.00 in0.0 mm 0.00 in0.0 mm 0.00 in0.0 mm
04:14 AM 36.2°F2.3°C 35.0°F1.7°C 95% 2.0 mph WSW3.2 kmh WSW 9.0 mph14.5 kmh 29.61 in1002.7 mb 0.00 in0.0 mm 0.00 in0.0 mm 0.00 in0.0 mm
04:09 AM 36.3°F2.4°C 35.0°F1.7°C 95% 2.0 mph SW3.2 kmh SW 9.0 mph14.5 kmh 29.61 in1002.7 mb 0.00 in0.0 mm 0.00 in0.0 mm 0.00 in0.0 mm
04:04 AM 36.5°F2.5°C 35.0°F1.7°C 95% 2.0 mph WSW3.2 kmh WSW 9.0 mph14.5 kmh 29.61 in1002.7 mb 0.00 in0.0 mm 0.00 in0.0 mm 0.00 in0.0 mm
03:59 AM 36.7°F2.6°C 35.0°F1.7°C 95% 3.0 mph WSW4.8 kmh WSW 9.0 mph14.5 kmh 29.61 in1002.7 mb 0.00 in0.0 mm 0.00 in0.0 mm 0.00 in0.0 mm
03:54 AM 36.9°F2.7°C 36.0°F2.2°C 95% 2.0 mph W3.2 kmh W 9.0 mph14.5 kmh 29.61 in1002.7 mb 0.00 in0.0 mm 0.00 in0.0 mm 0.00 in0.0 mm
03:49 AM 36.9°F2.7°C 36.0°F2.2°C 95% 4.0 mph W6.4 kmh W 8.0 mph12.9 kmh 29.61 in1002.7 mb 0.00 in0.0 mm 0.00 in0.0 mm 0.00 in0.0 mm
03:44 AM 36.8°F2.7°C 36.0°F2.2°C 95% 4.0 mph WSW6.4 kmh WSW 8.0 mph12.9 kmh 29.61 in1002.7 mb 0.00 in0.0 mm 0.00 in0.0 mm 0.00 in0.0 mm
03:39 AM 36.8°F2.7°C 36.0°F2.2°C 95% 3.0 mph WSW4.8 kmh WSW 8.0 mph12.9 kmh 29.61 in1002.7 mb 0.00 in0.0 mm 0.00 in0.0 mm 0.00 in0.0 mm
03:34 AM 36.8°F2.7°C 36.0°F2.2°C 95% 3.0 mph SW4.8 kmh SW 8.0 mph12.9 kmh 29.61 in1002.7 mb 0.00 in0.0 mm 0.00 in0.0 mm 0.00 in0.0 mm
03:29 AM 36.8°F2.7°C 36.0°F2.2°C 95% 3.0 mph WNW4.8 kmh WNW 8.0 mph12.9 kmh 29.61 in1002.7 mb 0.00 in0.0 mm 0.00 in0.0 mm 0.00 in0.0 mm
03:24 AM 36.9°F2.7°C 36.0°F2.2°C 95% 2.0 mph WSW3.2 kmh WSW 8.0 mph12.9 kmh 29.61 in1002.7 mb 0.00 in0.0 mm 0.00 in0.0 mm 0.00 in0.0 mm
03:19 AM 36.8°F2.7°C 36.0°F2.2°C 95% 2.0 mph W3.2 kmh W 8.0 mph12.9 kmh 29.61 in1002.7 mb 0.00 in0.0 mm 0.00 in0.0 mm 0.00 in0.0 mm
03:14 AM 36.8°F2.7°C 36.0°F2.2°C 95% 2.0 mph WSW3.2 kmh WSW 8.0 mph12.9 kmh 29.61 in1002.7 mb 0.00 in0.0 mm 0.00 in0.0 mm 0.00 in0.0 mm
03:09 AM 36.7°F2.6°C 35.0°F1.7°C 95% 3.0 mph SW4.8 kmh SW 8.0 mph12.9 kmh 29.62 in1003.0 mb 0.00 in0.0 mm 0.00 in0.0 mm 0.00 in0.0 mm
03:04 AM 36.7°F2.6°C 35.0°F1.7°C 95% 3.0 mph WSW4.8 kmh WSW 8.0 mph12.9 kmh 29.61 in1002.7 mb 0.00 in0.0 mm 0.00 in0.0 mm 0.00 in0.0 mm
02:59 AM 36.8°F2.7°C 36.0°F2.2°C 95% 4.0 mph WSW6.4 kmh WSW 8.0 mph12.9 kmh 29.61 in1002.7 mb 0.00 in0.0 mm 0.00 in0.0 mm 0.00 in0.0 mm
02:54 AM 36.8°F2.7°C 36.0°F2.2°C 95% 3.0 mph SW4.8 kmh SW 8.0 mph12.9 kmh 29.61 in1002.7 mb 0.00 in0.0 mm 0.00 in0.0 mm 0.00 in0.0 mm
02:49 AM 36.9°F2.7°C 36.0°F2.2°C 95% 3.0 mph SW4.8 kmh SW 8.0 mph12.9 kmh 29.61 in1002.7 mb 0.00 in0.0 mm 0.00 in0.0 mm 0.00 in0.0 mm
02:44 AM 37.1°F2.8°C 36.0°F2.2°C 95% 2.0 mph WSW3.2 kmh WSW 8.0 mph12.9 kmh 29.61 in1002.7 mb 0.00 in0.0 mm 0.00 in0.0 mm 0.00 in0.0 mm
02:39 AM 37.2°F2.9°C 36.0°F2.2°C 95% 2.0 mph SW3.2 kmh SW 8.0 mph12.9 kmh 29.61 in1002.7 mb 0.00 in0.0 mm 0.00 in0.0 mm 0.00 in0.0 mm
02:34 AM 37.3°F2.9°C 36.0°F2.2°C 95% Calm Calm 8.0 mph12.9 kmh 29.61 in1002.7 mb 0.00 in0.0 mm 0.00 in0.0 mm 0.00 in0.0 mm
02:29 AM 37.5°F3.1°C 36.0°F2.2°C 95% 2.0 mph WSW3.2 kmh WSW 8.0 mph12.9 kmh 29.61 in1002.7 mb 0.00 in0.0 mm 0.00 in0.0 mm 0.00 in0.0 mm
02:24 AM 37.7°F3.2°C 36.0°F2.2°C 95% 1.0 mph WSW1.6 kmh WSW 8.0 mph12.9 kmh 29.61 in1002.7 mb 0.00 in0.0 mm 0.00 in0.0 mm 0.00 in0.0 mm
02:19 AM 37.8°F3.2°C 37.0°F2.8°C 95% 1.0 mph WSW1.6 kmh WSW 8.0 mph12.9 kmh 29.61 in1002.7 mb 0.00 in0.0 mm 0.00 in0.0 mm 0.00 in0.0 mm
02:14 AM 38.0°F3.3°C 37.0°F2.8°C 95% 2.0 mph SW3.2 kmh SW 8.0 mph12.9 kmh 29.61 in1002.7 mb 0.00 in0.0 mm 0.00 in0.0 mm 0.00 in0.0 mm
02:09 AM 38.3°F3.5°C 37.0°F2.8°C 95% 3.0 mph WSW4.8 kmh WSW 7.0 mph11.3 kmh 29.61 in1002.7 mb 0.00 in0.0 mm 0.00 in0.0 mm 0.00 in0.0 mm
02:04 AM 38.4°F3.6°C 37.0°F2.8°C 95% 2.0 mph WNW3.2 kmh WNW 7.0 mph11.3 kmh 29.61 in1002.7 mb 0.00 in0.0 mm 0.00 in0.0 mm 0.00 in0.0 mm
01:59 AM 38.4°F3.6°C 37.0°F2.8°C 95% 1.0 mph WNW1.6 kmh WNW 7.0 mph11.3 kmh 29.61 in1002.7 mb 0.00 in0.0 mm 0.00 in0.0 mm 0.00 in0.0 mm
01:54 AM 38.5°F3.6°C 37.0°F2.8°C 95% 1.0 mph W1.6 kmh W 7.0 mph11.3 kmh 29.61 in1002.7 mb 0.00 in0.0 mm 0.00 in0.0 mm 0.00 in0.0 mm
01:49 AM 38.6°F3.7°C 37.0°F2.8°C 95% 2.0 mph SW3.2 kmh SW 7.0 mph11.3 kmh 29.61 in1002.7 mb 0.00 in0.0 mm 0.00 in0.0 mm 0.00 in0.0 mm
01:44 AM 38.6°F3.7°C 37.0°F2.8°C 95% 3.0 mph SSW4.8 kmh SSW 7.0 mph11.3 kmh 29.61 in1002.7 mb 0.00 in0.0 mm 0.00 in0.0 mm 0.00 in0.0 mm
01:39 AM 38.7°F3.7°C 37.0°F2.8°C 95% 5.0 mph SW8.0 kmh SW 7.0 mph11.3 kmh 29.61 in1002.7 mb 0.00 in0.0 mm 0.00 in0.0 mm 0.00 in0.0 mm
01:34 AM 38.7°F3.7°C 37.0°F2.8°C 95% 2.0 mph WSW3.2 kmh WSW 7.0 mph11.3 kmh 29.61 in1002.7 mb 0.00 in0.0 mm 0.00 in0.0 mm 0.00 in0.0 mm
01:29 AM 38.7°F3.7°C 37.0°F2.8°C 95% 1.0 mph WNW1.6 kmh WNW 7.0 mph11.3 kmh 29.61 in1002.7 mb 0.00 in0.0 mm 0.00 in0.0 mm 0.00 in0.0 mm
01:24 AM 38.5°F3.6°C 37.0°F2.8°C 95% 3.0 mph W4.8 kmh W 7.0 mph11.3 kmh 29.61 in1002.7 mb 0.00 in0.0 mm 0.00 in0.0 mm 0.00 in0.0 mm
01:19 AM 38.4°F3.6°C 37.0°F2.8°C 95% 4.0 mph W6.4 kmh W 6.0 mph9.7 kmh 29.61 in1002.7 mb 0.00 in0.0 mm 0.00 in0.0 mm 0.00 in0.0 mm
01:14 AM 38.4°F3.6°C 37.0°F2.8°C 95% 2.0 mph W3.2 kmh W 4.0 mph6.4 kmh 29.61 in1002.7 mb 0.00 in0.0 mm 0.00 in0.0 mm 0.00 in0.0 mm
01:09 AM 38.4°F3.6°C 37.0°F2.8°C 94% 4.0 mph SW6.4 kmh SW 4.0 mph6.4 kmh 29.60 in1002.4 mb 0.00 in0.0 mm 0.00 in0.0 mm 0.00 in0.0 mm
01:04 AM 38.6°F3.7°C 37.0°F2.8°C 94% 2.0 mph SW3.2 kmh SW 4.0 mph6.4 kmh 29.60 in1002.4 mb 0.00 in0.0 mm 0.00 in0.0 mm 0.00 in0.0 mm
12:59 AM 38.7°F3.7°C 37.0°F2.8°C 94% 4.0 mph SW6.4 kmh SW 22.0 mph35.4 kmh 29.60 in1002.4 mb 0.00 in0.0 mm 0.00 in0.0 mm 0.28 in7.1 mm
12:55 AM 38.9°F3.8°C 37.0°F2.8°C 94% 2.0 mph SW3.2 kmh SW 22.0 mph35.4 kmh 29.60 in1002.4 mb 0.00 in0.0 mm 0.00 in0.0 mm 0.28 in7.1 mm
12:50 AM 39.1°F3.9°C 38.0°F3.3°C 94% 2.0 mph SW3.2 kmh SW 22.0 mph35.4 kmh 29.60 in1002.4 mb 0.00 in0.0 mm 0.00 in0.0 mm 0.28 in7.1 mm
12:44 AM 39.3°F4.1°C 38.0°F3.3°C 94% 5.0 mph WSW8.0 kmh WSW 22.0 mph35.4 kmh 29.60 in1002.4 mb 0.00 in0.0 mm 0.00 in0.0 mm 0.28 in7.1 mm
12:39 AM 39.5°F4.2°C 38.0°F3.3°C 94% 3.0 mph WSW4.8 kmh WSW 22.0 mph35.4 kmh 29.60 in1002.4 mb 0.00 in0.0 mm 0.00 in0.0 mm 0.28 in7.1 mm
12:34 AM 39.6°F4.2°C 38.0°F3.3°C 94% 1.0 mph WSW1.6 kmh WSW 22.0 mph35.4 kmh 29.60 in1002.4 mb 0.00 in0.0 mm 0.00 in0.0 mm 0.28 in7.1 mm
12:29 AM 39.8°F4.3°C 38.0°F3.3°C 94% 3.0 mph WSW4.8 kmh WSW 22.0 mph35.4 kmh 29.60 in1002.4 mb 0.00 in0.0 mm 0.00 in0.0 mm 0.28 in7.1 mm
12:24 AM 39.8°F4.3°C 38.0°F3.3°C 94% 2.0 mph WSW3.2 kmh WSW 22.0 mph35.4 kmh 29.61 in1002.7 mb 0.00 in0.0 mm 0.00 in0.0 mm 0.28 in7.1 mm
12:19 AM 40.0°F4.4°C 39.0°F3.9°C 94% 2.0 mph SW3.2 kmh SW 22.0 mph35.4 kmh 29.60 in1002.4 mb 0.00 in0.0 mm 0.00 in0.0 mm 0.28 in7.1 mm
12:14 AM 40.0°F4.4°C 39.0°F3.9°C 95% 3.0 mph WSW4.8 kmh WSW 22.0 mph35.4 kmh 29.61 in1002.7 mb 0.00 in0.0 mm 0.00 in0.0 mm 0.28 in7.1 mm
12:09 AM 40.1°F4.5°C 39.0°F3.9°C 95% 4.0 mph WSW6.4 kmh WSW 22.0 mph35.4 kmh 29.61 in1002.7 mb 0.00 in0.0 mm 0.00 in0.0 mm 0.28 in7.1 mm
12:04 AM 40.1°F4.5°C 39.0°F3.9°C 95% 2.0 mph WSW3.2 kmh WSW 22.0 mph35.4 kmh 29.61 in1002.7 mb 0.00 in0.0 mm 0.00 in0.0 mm 0.28 in7.1 mm